createdAt,value
2018-08-04T00:00:45.719Z,0.00
2018-08-04T00:01:45.725Z,0.00
2018-08-04T00:02:45.724Z,0.00
2018-08-04T00:03:45.728Z,0.00
2018-08-04T00:04:45.732Z,0.00
2018-08-04T00:05:45.735Z,0.00
2018-08-04T00:06:45.741Z,0.00
2018-08-04T00:07:45.743Z,0.00
2018-08-04T00:08:45.748Z,0.00
2018-08-04T00:09:45.750Z,0.00
2018-08-04T00:10:45.755Z,0.00
2018-08-04T00:11:45.761Z,0.00
2018-08-04T00:12:45.761Z,0.00
2018-08-04T00:13:45.762Z,0.00
2018-08-04T00:14:45.770Z,0.00
2018-08-04T00:15:45.773Z,0.00
2018-08-04T00:16:45.780Z,0.00
2018-08-04T00:17:45.780Z,0.00
2018-08-04T00:18:45.788Z,0.00
2018-08-04T00:19:45.788Z,0.00
2018-08-04T00:20:45.790Z,0.00
2018-08-04T00:21:45.793Z,0.00
2018-08-04T00:22:45.796Z,0.00
2018-08-04T00:23:45.801Z,0.00
2018-08-04T00:24:45.805Z,0.00
2018-08-04T00:25:45.807Z,0.00
2018-08-04T00:26:45.814Z,0.00
2018-08-04T00:27:45.814Z,0.00
2018-08-04T00:28:45.818Z,0.00
2018-08-04T00:29:45.825Z,0.00
2018-08-04T00:30:45.827Z,0.00
2018-08-04T00:31:45.829Z,0.00
2018-08-04T00:32:45.834Z,0.00
2018-08-04T00:33:45.837Z,0.00
2018-08-04T00:34:45.840Z,0.00
2018-08-04T00:35:45.847Z,0.00
2018-08-04T00:36:45.847Z,0.00
2018-08-04T00:37:45.850Z,0.00
2018-08-04T00:38:45.857Z,0.00
2018-08-04T00:39:45.860Z,0.00
2018-08-04T00:40:45.864Z,0.00
2018-08-04T00:41:45.866Z,0.00
2018-08-04T00:42:45.926Z,0.00
2018-08-04T00:43:45.869Z,0.00
2018-08-04T00:44:45.875Z,0.00
2018-08-04T00:45:45.881Z,0.00
2018-08-04T00:46:45.887Z,0.00
2018-08-04T00:47:45.885Z,0.00
2018-08-04T00:48:45.891Z,0.00
2018-08-04T00:49:45.895Z,0.00
2018-08-04T00:50:45.897Z,0.00
2018-08-04T00:51:45.898Z,0.00
2018-08-04T00:52:45.903Z,0.00
2018-08-04T00:53:45.908Z,0.00
2018-08-04T00:54:45.910Z,0.00
2018-08-04T00:55:45.912Z,0.00
2018-08-04T00:56:45.917Z,0.00
2018-08-04T00:57:45.921Z,0.00
2018-08-04T00:58:45.925Z,0.00
2018-08-04T00:59:45.929Z,0.00
2018-08-04T01:00:45.929Z,0.00
2018-08-04T01:01:45.935Z,0.00
2018-08-04T01:02:45.936Z,0.00
2018-08-04T01:03:45.942Z,0.00
2018-08-04T01:04:45.947Z,0.00
2018-08-04T01:05:45.948Z,0.00
2018-08-04T01:06:45.955Z,0.00
2018-08-04T01:07:45.955Z,0.00
2018-08-04T01:08:45.957Z,0.00
2018-08-04T01:09:45.959Z,0.00
2018-08-04T01:10:45.963Z,0.00
2018-08-04T01:11:45.968Z,0.00
2018-08-04T01:12:45.972Z,0.00
2018-08-04T01:13:45.983Z,0.00
2018-08-04T01:14:45.982Z,0.00
2018-08-04T01:15:45.981Z,0.00
2018-08-04T01:16:45.989Z,0.00
2018-08-04T01:17:45.990Z,0.00
2018-08-04T01:18:45.993Z,0.00
2018-08-04T01:19:45.996Z,0.00
2018-08-04T01:20:46.001Z,0.00
2018-08-04T01:21:46.007Z,0.00
2018-08-04T01:22:46.010Z,0.00
2018-08-04T01:23:46.010Z,0.00
2018-08-04T01:24:46.013Z,0.00
2018-08-04T01:25:46.017Z,0.00
2018-08-04T01:26:46.019Z,0.00
2018-08-04T01:27:46.022Z,0.00
2018-08-04T01:28:46.024Z,0.00
2018-08-04T01:29:46.031Z,0.00
2018-08-04T01:30:46.033Z,0.00
2018-08-04T01:31:46.040Z,0.00
2018-08-04T01:32:46.044Z,0.00
2018-08-04T01:33:46.045Z,0.00
2018-08-04T01:34:46.049Z,0.00
2018-08-04T01:35:46.050Z,0.00
2018-08-04T01:36:46.054Z,0.00
2018-08-04T01:37:46.058Z,0.00
2018-08-04T01:38:46.061Z,0.00
2018-08-04T01:39:46.068Z,0.00
2018-08-04T01:40:46.069Z,0.00
2018-08-04T01:41:46.076Z,0.00
2018-08-04T01:42:46.076Z,0.00
2018-08-04T01:43:46.078Z,0.00
2018-08-04T01:44:46.081Z,0.00
2018-08-04T01:45:46.087Z,0.00
2018-08-04T01:46:46.089Z,0.00
2018-08-04T01:47:46.093Z,0.00
2018-08-04T01:48:46.095Z,0.00
2018-08-04T01:49:46.101Z,0.00
2018-08-04T01:50:46.102Z,0.00
2018-08-04T01:51:46.105Z,0.00
2018-08-04T01:52:46.109Z,0.00
2018-08-04T01:53:46.156Z,0.00
2018-08-04T01:54:46.119Z,0.00
2018-08-04T01:55:46.118Z,0.00
2018-08-04T01:56:46.125Z,0.00
2018-08-04T01:57:46.125Z,0.00
2018-08-04T01:58:46.129Z,0.00
2018-08-04T01:59:46.131Z,0.00
2018-08-04T02:00:46.133Z,0.00
2018-08-04T02:01:46.138Z,0.00
2018-08-04T02:02:46.142Z,0.00
2018-08-04T02:03:46.148Z,0.00
2018-08-04T02:04:46.152Z,0.00
2018-08-04T02:05:46.157Z,0.00
2018-08-04T02:06:46.159Z,0.00
2018-08-04T02:07:46.161Z,0.00
2018-08-04T02:08:46.162Z,0.00
2018-08-04T02:09:46.164Z,0.00
2018-08-04T02:10:46.169Z,0.00
2018-08-04T02:11:46.170Z,0.00
2018-08-04T02:12:46.176Z,0.00
2018-08-04T02:13:46.178Z,0.00
2018-08-04T02:14:46.181Z,0.00
2018-08-04T02:15:46.184Z,0.00
2018-08-04T02:16:46.192Z,0.00
2018-08-04T02:17:46.190Z,0.00
2018-08-04T02:18:46.194Z,0.00
2018-08-04T02:19:46.198Z,0.00
2018-08-04T02:20:46.200Z,0.00
2018-08-04T02:21:46.202Z,0.00
2018-08-04T02:22:46.208Z,0.00
2018-08-04T02:23:46.208Z,0.00
2018-08-04T02:24:46.215Z,0.00
2018-08-04T02:25:46.215Z,0.00
2018-08-04T02:26:46.218Z,0.00
2018-08-04T02:27:46.222Z,0.00
2018-08-04T02:28:46.227Z,0.00
2018-08-04T02:29:46.226Z,0.00
2018-08-04T02:30:46.229Z,0.00
2018-08-04T02:31:46.231Z,0.00
2018-08-04T02:32:46.239Z,0.00
2018-08-04T02:33:46.244Z,0.00
2018-08-04T02:34:46.241Z,0.00
2018-08-04T02:35:46.246Z,0.00
2018-08-04T02:36:46.246Z,0.00
2018-08-04T02:37:46.248Z,0.00
2018-08-04T02:38:46.252Z,0.00
2018-08-04T02:39:46.255Z,0.00
2018-08-04T02:40:46.259Z,0.00
2018-08-04T02:41:46.263Z,0.00
2018-08-04T02:42:46.265Z,0.00
2018-08-04T02:43:46.266Z,0.00
2018-08-04T02:44:46.270Z,0.00
2018-08-04T02:45:46.275Z,0.00
2018-08-04T02:46:46.275Z,0.00
2018-08-04T02:47:46.279Z,0.00
2018-08-04T02:48:46.286Z,0.00
2018-08-04T02:49:46.285Z,0.00
2018-08-04T02:50:46.292Z,0.00
2018-08-04T02:51:46.297Z,4.00
2018-08-04T02:52:46.290Z,4.00
2018-08-04T02:53:46.295Z,0.00
2018-08-04T02:54:46.303Z,4.00
2018-08-04T02:55:46.302Z,0.00
2018-08-04T02:56:46.307Z,4.00
2018-08-04T02:57:46.307Z,4.00
2018-08-04T02:58:46.312Z,4.00
2018-08-04T02:59:46.315Z,4.00
2018-08-04T03:00:46.315Z,8.00
2018-08-04T03:01:46.317Z,8.00
2018-08-04T03:02:46.322Z,8.00
2018-08-04T03:03:46.322Z,8.00
2018-08-04T03:04:46.327Z,12.00
2018-08-04T03:05:46.327Z,12.00
2018-08-04T03:06:46.332Z,16.00
2018-08-04T03:07:46.332Z,16.00
2018-08-04T03:08:46.338Z,20.00
2018-08-04T03:09:46.340Z,20.00
2018-08-04T03:10:46.341Z,24.00
2018-08-04T03:11:46.344Z,28.00
2018-08-04T03:12:46.347Z,32.00
2018-08-04T03:13:46.350Z,32.00
2018-08-04T03:14:46.352Z,40.00
2018-08-04T03:15:46.364Z,44.00
2018-08-04T03:16:46.358Z,48.00
2018-08-04T03:17:46.364Z,56.00
2018-08-04T03:18:46.364Z,60.00
2018-08-04T03:19:46.365Z,64.00
2018-08-04T03:20:46.367Z,72.00
2018-08-04T03:21:46.368Z,84.00
2018-08-04T03:22:46.373Z,92.00
2018-08-04T03:23:46.375Z,96.00
2018-08-04T03:24:46.376Z,108.00
2018-08-04T03:25:46.381Z,116.00
2018-08-04T03:26:46.384Z,128.00
2018-08-04T03:27:46.384Z,140.00
2018-08-04T03:28:46.388Z,148.00
2018-08-04T03:29:46.391Z,164.00
2018-08-04T03:30:46.395Z,172.00
2018-08-04T03:31:46.396Z,188.00
2018-08-04T03:32:46.398Z,204.00
2018-08-04T03:33:46.400Z,216.00
2018-08-04T03:34:46.403Z,236.00
2018-08-04T03:35:46.403Z,252.00
2018-08-04T03:36:46.407Z,268.00
2018-08-04T03:37:46.412Z,288.00
2018-08-04T03:38:46.414Z,308.00
2018-08-04T03:39:46.417Z,328.00
2018-08-04T03:40:46.420Z,348.00
2018-08-04T03:41:46.421Z,368.00
2018-08-04T03:42:46.425Z,392.00
2018-08-04T03:43:46.425Z,416.00
2018-08-04T03:44:46.428Z,440.00
2018-08-04T03:45:46.430Z,464.00
2018-08-04T03:46:46.434Z,496.00
2018-08-04T03:47:46.436Z,524.00
2018-08-04T03:48:46.439Z,552.00
2018-08-04T03:49:46.441Z,584.00
2018-08-04T03:50:46.443Z,612.00
2018-08-04T03:51:46.449Z,640.00
2018-08-04T03:52:46.448Z,672.00
2018-08-04T03:53:46.451Z,708.00
2018-08-04T03:54:46.457Z,740.00
2018-08-04T03:55:46.456Z,772.00
2018-08-04T03:56:46.459Z,804.00
2018-08-04T03:57:46.461Z,836.00
2018-08-04T03:58:46.464Z,868.00
2018-08-04T03:59:46.479Z,908.00
2018-08-04T04:00:46.470Z,948.00
2018-08-04T04:01:46.472Z,984.00
2018-08-04T04:02:46.479Z,1024.00
2018-08-04T04:03:46.480Z,1060.00
2018-08-04T04:04:46.478Z,1096.00
2018-08-04T04:05:46.483Z,1132.00
2018-08-04T04:06:46.485Z,1172.00
2018-08-04T04:07:46.486Z,1212.00
2018-08-04T04:08:46.491Z,1272.00
2018-08-04T04:09:46.494Z,1328.00
2018-08-04T04:10:46.498Z,1384.00
2018-08-04T04:11:46.496Z,1428.00
2018-08-04T04:12:46.503Z,1476.00
2018-08-04T04:13:46.506Z,1524.00
2018-08-04T04:14:46.507Z,1576.00
2018-08-04T04:15:46.514Z,1620.00
2018-08-04T04:16:46.512Z,1668.00
2018-08-04T04:17:46.514Z,1720.00
2018-08-04T04:18:46.516Z,1768.00
2018-08-04T04:19:46.525Z,1812.00
2018-08-04T04:20:46.522Z,1856.00
2018-08-04T04:21:46.524Z,1900.00
2018-08-04T04:22:46.527Z,1952.00
2018-08-04T04:23:46.530Z,2008.00
2018-08-04T04:24:46.533Z,2060.00
2018-08-04T04:25:46.537Z,2116.00
2018-08-04T04:26:46.539Z,2176.00
2018-08-04T04:27:46.542Z,2232.00
2018-08-04T04:28:46.549Z,2296.00
2018-08-04T04:29:46.551Z,2368.00
2018-08-04T04:30:46.550Z,2448.00
2018-08-04T04:31:46.554Z,2540.00
2018-08-04T04:32:46.557Z,2644.00
2018-08-04T04:33:46.562Z,2752.00
2018-08-04T04:34:46.563Z,2876.00
2018-08-04T04:35:46.565Z,3016.00
2018-08-04T04:36:46.592Z,3160.00
2018-08-04T04:37:46.571Z,3320.00
2018-08-04T04:38:46.574Z,3468.00
2018-08-04T04:39:46.577Z,3596.00
2018-08-04T04:40:46.581Z,3700.00
2018-08-04T04:41:46.583Z,3800.00
2018-08-04T04:42:46.585Z,3880.00
2018-08-04T04:43:46.592Z,3952.00
2018-08-04T04:44:46.594Z,4028.00
2018-08-04T04:45:46.597Z,4136.00
2018-08-04T04:46:46.602Z,4212.00
2018-08-04T04:47:46.600Z,4280.00
2018-08-04T04:48:46.609Z,4348.00
2018-08-04T04:49:46.615Z,4428.00
2018-08-04T04:50:46.616Z,4508.00
2018-08-04T04:51:46.616Z,4592.00
2018-08-04T04:52:46.623Z,4672.00
2018-08-04T04:53:46.625Z,4744.00
2018-08-04T04:54:46.626Z,4816.00
2018-08-04T04:55:46.631Z,4884.00
2018-08-04T04:56:46.634Z,4948.00
2018-08-04T04:57:46.638Z,5012.00
2018-08-04T04:58:46.649Z,5064.00
2018-08-04T04:59:46.647Z,5120.00
2018-08-04T05:00:46.651Z,5184.00
2018-08-04T05:01:46.655Z,5248.00
2018-08-04T05:02:46.659Z,5324.00
2018-08-04T05:03:46.665Z,5384.00
2018-08-04T05:04:46.673Z,5428.00
2018-08-04T05:05:46.677Z,5484.00
2018-08-04T05:06:46.676Z,5536.00
2018-08-04T05:07:46.681Z,5608.00
2018-08-04T05:08:46.759Z,5688.00
2018-08-04T05:09:46.690Z,5756.00
2018-08-04T05:10:46.695Z,5812.00
2018-08-04T05:11:46.700Z,5876.00
2018-08-04T05:12:46.708Z,5944.00
2018-08-04T05:13:46.709Z,5988.00
2018-08-04T05:14:46.713Z,6028.00
2018-08-04T05:15:46.720Z,6056.00
2018-08-04T05:16:46.722Z,6092.00
2018-08-04T05:17:46.728Z,6124.00
2018-08-04T05:18:46.735Z,6156.00
2018-08-04T05:19:46.739Z,6196.00
2018-08-04T05:20:46.745Z,6236.00
2018-08-04T05:21:46.752Z,6280.00
2018-08-04T05:22:46.758Z,6328.00
2018-08-04T05:23:46.763Z,6392.00
2018-08-04T05:24:46.770Z,6460.00
2018-08-04T05:25:46.775Z,6524.00
2018-08-04T05:26:46.781Z,6636.00
2018-08-04T05:27:46.784Z,6712.00
2018-08-04T05:28:46.790Z,6808.00
2018-08-04T05:29:46.796Z,6872.00
2018-08-04T05:30:46.804Z,6944.00
2018-08-04T05:31:46.810Z,7008.00
2018-08-04T05:32:46.815Z,7052.00
2018-08-04T05:33:46.822Z,7084.00
2018-08-04T05:34:46.829Z,7060.00
2018-08-04T05:35:46.833Z,7084.00
2018-08-04T05:36:46.841Z,7100.00
2018-08-04T05:37:46.850Z,7112.00
2018-08-04T05:38:46.856Z,7180.00
2018-08-04T05:39:46.862Z,7248.00
2018-08-04T05:40:46.869Z,7368.00
2018-08-04T05:41:46.877Z,7500.00
2018-08-04T05:42:46.883Z,7584.00
2018-08-04T05:43:46.886Z,7652.00
2018-08-04T05:44:46.893Z,7708.00
2018-08-04T05:45:46.904Z,7796.00
2018-08-04T05:46:46.908Z,7876.00
2018-08-04T05:47:46.915Z,7988.00
2018-08-04T05:48:46.921Z,8072.00
2018-08-04T05:49:46.928Z,8184.00
2018-08-04T05:50:46.936Z,8236.00
2018-08-04T05:51:46.941Z,8284.00
2018-08-04T05:52:46.951Z,8332.00
2018-08-04T05:53:46.960Z,8384.00
2018-08-04T05:54:46.968Z,8484.00
2018-08-04T05:55:46.974Z,8608.00
2018-08-04T05:56:46.983Z,8760.00
2018-08-04T05:57:46.995Z,8864.00
2018-08-04T05:58:46.999Z,9000.00
2018-08-04T05:59:47.007Z,9184.00
2018-08-04T06:00:47.013Z,9784.00
2018-08-04T06:01:47.037Z,14400.00
2018-08-04T06:02:47.031Z,20416.00
2018-08-04T06:03:47.037Z,23968.00
2018-08-04T06:04:47.046Z,24384.00
2018-08-04T06:05:47.052Z,22848.00
2018-08-04T06:06:47.064Z,22368.00
2018-08-04T06:07:47.070Z,21536.00
2018-08-04T06:08:47.079Z,21408.00
2018-08-04T06:09:47.089Z,21568.00
2018-08-04T06:10:47.096Z,22752.00
2018-08-04T06:11:47.105Z,23968.00
2018-08-04T06:12:47.115Z,24480.00
2018-08-04T06:13:47.128Z,24928.00
2018-08-04T06:14:47.131Z,28800.00
2018-08-04T06:15:47.139Z,29568.00
2018-08-04T06:16:47.148Z,29376.00
2018-08-04T06:17:47.158Z,28512.00
2018-08-04T06:18:47.168Z,26880.00
2018-08-04T06:19:47.175Z,27840.00
2018-08-04T06:20:47.184Z,28512.00
2018-08-04T06:21:47.196Z,29248.00
2018-08-04T06:22:47.206Z,30048.00
2018-08-04T06:23:47.216Z,28864.00
2018-08-04T06:24:47.222Z,30240.00
2018-08-04T06:25:47.232Z,30880.00
2018-08-04T06:26:47.240Z,30368.00
2018-08-04T06:27:47.253Z,29472.00
2018-08-04T06:28:47.258Z,27104.00
2018-08-04T06:29:47.268Z,24896.00
2018-08-04T06:30:47.277Z,23264.00
2018-08-04T06:31:47.335Z,21984.00
2018-08-04T06:32:47.295Z,22080.00
2018-08-04T06:33:47.307Z,21088.00
2018-08-04T06:34:47.330Z,19680.00
2018-08-04T06:35:47.324Z,19232.00
2018-08-04T06:36:47.333Z,18976.00
2018-08-04T06:37:47.349Z,18208.00
2018-08-04T06:38:47.355Z,17248.00
2018-08-04T06:39:47.364Z,19808.00
2018-08-04T06:40:47.376Z,23488.00
2018-08-04T06:41:47.424Z,24064.00
2018-08-04T06:42:47.395Z,25888.00
2018-08-04T06:43:47.402Z,31552.00
2018-08-04T06:44:47.414Z,34016.00
2018-08-04T06:45:47.430Z,30144.00
2018-08-04T06:46:47.434Z,28480.00
2018-08-04T06:47:47.444Z,31072.00
2018-08-04T06:48:47.456Z,33248.00
2018-08-04T06:49:47.465Z,32832.00
2018-08-04T06:50:47.475Z,33472.00
2018-08-04T06:51:47.485Z,34752.00
2018-08-04T06:52:47.538Z,31264.00
2018-08-04T06:53:47.506Z,30560.00
2018-08-04T06:54:47.522Z,35776.00
2018-08-04T06:55:47.526Z,40256.00
2018-08-04T06:56:47.537Z,40704.00
2018-08-04T06:57:47.555Z,37760.00
2018-08-04T06:58:47.560Z,32928.00
2018-08-04T06:59:47.569Z,26336.00
2018-08-04T07:00:47.576Z,24736.00
2018-08-04T07:01:47.592Z,31744.00
2018-08-04T07:02:47.603Z,40384.00
2018-08-04T07:03:47.613Z,42976.00
2018-08-04T07:04:47.632Z,43936.00
2018-08-04T07:05:47.636Z,44704.00
2018-08-04T07:06:47.649Z,38464.00
2018-08-04T07:07:47.657Z,32640.00
2018-08-04T07:08:47.670Z,33984.00
2018-08-04T07:09:47.681Z,31168.00
2018-08-04T07:10:48.027Z,31936.00
2018-08-04T07:11:47.706Z,39072.00
2018-08-04T07:12:47.713Z,40128.00
2018-08-04T07:13:47.788Z,41792.00
2018-08-04T07:14:47.738Z,48512.00
2018-08-04T07:15:47.749Z,49824.00
2018-08-04T07:16:47.760Z,51520.00
2018-08-04T07:17:47.771Z,54432.00
2018-08-04T07:18:47.783Z,51200.00
2018-08-04T07:19:47.795Z,48128.00
2018-08-04T07:20:47.804Z,47616.00
2018-08-04T07:21:47.817Z,47104.00
2018-08-04T07:22:47.855Z,47040.00
2018-08-04T07:23:47.841Z,49280.00
2018-08-04T07:24:47.853Z,48416.00
2018-08-04T07:25:47.865Z,46048.00
2018-08-04T07:26:47.877Z,46880.00
2018-08-04T07:27:47.888Z,46816.00
2018-08-04T07:28:47.924Z,45312.00
2018-08-04T07:29:47.914Z,48704.00
2018-08-04T07:30:47.925Z,52224.00
2018-08-04T07:31:47.938Z,52064.00
2018-08-04T07:32:47.949Z,53728.00
2018-08-04T07:33:47.959Z,54848.00
2018-08-04T07:34:47.972Z,54048.00
2018-08-04T07:35:47.984Z,55776.00
2018-08-04T07:36:47.996Z,58528.00
2018-08-04T07:37:48.009Z,54944.00
2018-08-04T07:38:48.022Z,51072.00
2018-08-04T07:39:48.036Z,53344.00
2018-08-04T07:40:48.049Z,56608.00
2018-08-04T07:41:48.062Z,54912.00
2018-08-04T07:42:48.071Z,56512.00
2018-08-04T07:43:48.082Z,59712.00
2018-08-04T07:44:48.099Z,58336.00
2018-08-04T07:45:48.107Z,55392.00
2018-08-04T07:46:48.122Z,53856.00
2018-08-04T07:47:48.132Z,54176.00
2018-08-04T07:48:48.149Z,56000.00
2018-08-04T07:49:48.159Z,56672.00
2018-08-04T07:50:48.172Z,54912.00
2018-08-04T07:51:48.185Z,52544.00
2018-08-04T07:52:48.198Z,48896.00
2018-08-04T07:53:48.211Z,42528.00
2018-08-04T07:54:48.224Z,39008.00
2018-08-04T07:55:48.241Z,44576.00
2018-08-04T07:56:48.253Z,51968.00
2018-08-04T07:57:48.263Z,59712.00
2018-08-04T07:58:48.278Z,62912.00
2018-08-04T07:59:48.287Z,58400.00
2018-08-04T08:00:48.301Z,53856.00
2018-08-04T08:01:48.316Z,50912.00
2018-08-04T08:02:48.328Z,46752.00
2018-08-04T08:03:48.348Z,47840.00
2018-08-04T08:04:48.354Z,54624.00
2018-08-04T08:05:48.369Z,62688.00
2018-08-04T08:06:48.381Z,67168.00
2018-08-04T08:07:48.394Z,66240.00
2018-08-04T08:08:48.414Z,63392.00
2018-08-04T08:09:48.423Z,60992.00
2018-08-04T08:10:48.517Z,64768.00
2018-08-04T08:11:48.448Z,69280.00
2018-08-04T08:12:48.458Z,70240.00
2018-08-04T08:13:48.477Z,72544.00
2018-08-04T08:14:48.489Z,72576.00
2018-08-04T08:15:48.503Z,65792.00
2018-08-04T08:16:48.517Z,64768.00
2018-08-04T08:17:48.530Z,67296.00
2018-08-04T08:18:48.542Z,64096.00
2018-08-04T08:19:48.558Z,59136.00
2018-08-04T08:20:48.571Z,60256.00
2018-08-04T08:21:48.582Z,65632.00
2018-08-04T08:22:48.598Z,66656.00
2018-08-04T08:23:48.609Z,63712.00
2018-08-04T08:24:48.650Z,61632.00
2018-08-04T08:25:48.634Z,58368.00
2018-08-04T08:26:48.651Z,57504.00
2018-08-04T08:27:48.665Z,63840.00
2018-08-04T08:28:48.679Z,69184.00
2018-08-04T08:29:48.692Z,69024.00
2018-08-04T08:30:48.708Z,68128.00
2018-08-04T08:31:48.721Z,70816.00
2018-08-04T08:32:48.736Z,73440.00
2018-08-04T08:33:48.748Z,72896.00
2018-08-04T08:34:48.767Z,70624.00
2018-08-04T08:35:48.775Z,71776.00
2018-08-04T08:36:48.791Z,76704.00
2018-08-04T08:37:48.805Z,78144.00
2018-08-04T08:38:48.821Z,73664.00
2018-08-04T08:39:48.836Z,74272.00
2018-08-04T08:40:48.848Z,81024.00
2018-08-04T08:41:48.861Z,84544.00
2018-08-04T08:42:48.877Z,81696.00
2018-08-04T08:43:48.891Z,77152.00
2018-08-04T08:44:48.907Z,73440.00
2018-08-04T08:45:48.921Z,76576.00
2018-08-04T08:46:48.937Z,85408.00
2018-08-04T08:47:48.949Z,90848.00
2018-08-04T08:48:48.963Z,87040.00
2018-08-04T08:49:48.977Z,79616.00
2018-08-04T08:50:48.996Z,74208.00
2018-08-04T08:51:49.005Z,74880.00
2018-08-04T08:52:49.021Z,75104.00
2018-08-04T08:53:49.084Z,70272.00
2018-08-04T08:54:49.052Z,79136.00
2018-08-04T08:55:49.062Z,83136.00
2018-08-04T08:56:49.081Z,73792.00
2018-08-04T08:57:49.095Z,37408.00
2018-08-04T08:58:49.107Z,9896.00
2018-08-04T08:59:49.120Z,7820.00
2018-08-04T09:00:49.138Z,7388.00
2018-08-04T09:01:49.151Z,7192.00
2018-08-04T09:02:49.170Z,7020.00
2018-08-04T09:03:49.177Z,6892.00
2018-08-04T09:04:49.194Z,6816.00
2018-08-04T09:05:49.209Z,6684.00
2018-08-04T09:06:49.220Z,6428.00
2018-08-04T09:07:49.236Z,6284.00
2018-08-04T09:08:49.250Z,6220.00
2018-08-04T09:09:49.263Z,6184.00
2018-08-04T09:10:49.277Z,6152.00
2018-08-04T09:11:49.289Z,6152.00
2018-08-04T09:12:49.304Z,6164.00
2018-08-04T09:13:49.316Z,6188.00
2018-08-04T09:14:49.328Z,6204.00
2018-08-04T09:15:49.341Z,6204.00
2018-08-04T09:16:49.353Z,6180.00
2018-08-04T09:17:49.367Z,6160.00
2018-08-04T09:18:49.380Z,6148.00
2018-08-04T09:19:49.388Z,6128.00
2018-08-04T09:20:49.399Z,6112.00
2018-08-04T09:21:49.412Z,6096.00
2018-08-04T09:22:49.423Z,6088.00
2018-08-04T09:23:49.431Z,6080.00
2018-08-04T09:24:49.540Z,6068.00
2018-08-04T09:25:49.456Z,6080.00
2018-08-04T09:26:49.475Z,6148.00
2018-08-04T09:27:49.476Z,6340.00
2018-08-04T09:28:49.497Z,6740.00
2018-08-04T09:29:49.496Z,6732.00
2018-08-04T09:30:49.569Z,6592.00
2018-08-04T09:31:49.519Z,6200.00
2018-08-04T09:32:49.524Z,6828.00
2018-08-04T09:33:49.539Z,6556.00
2018-08-04T09:34:49.547Z,6520.00
2018-08-04T09:35:49.558Z,6572.00
2018-08-04T09:36:49.569Z,6564.00
2018-08-04T09:37:49.586Z,6544.00
2018-08-04T09:38:49.591Z,6496.00
2018-08-04T09:39:49.605Z,6484.00
2018-08-04T09:40:49.612Z,6480.00
2018-08-04T09:41:49.618Z,6476.00
2018-08-04T09:42:49.623Z,6448.00
2018-08-04T09:43:49.637Z,6392.00
2018-08-04T09:44:49.647Z,6392.00
2018-08-04T09:45:49.655Z,6344.00
2018-08-04T09:46:49.665Z,6352.00
2018-08-04T09:47:49.678Z,6316.00
2018-08-04T09:48:49.687Z,6328.00
2018-08-04T09:49:49.693Z,6300.00
2018-08-04T09:50:49.700Z,6540.00
2018-08-04T09:51:49.708Z,6796.00
2018-08-04T09:52:49.723Z,7008.00
2018-08-04T09:53:49.733Z,7144.00
2018-08-04T09:54:49.740Z,7364.00
2018-08-04T09:55:49.749Z,7532.00
2018-08-04T09:56:49.758Z,7812.00
2018-08-04T09:57:49.766Z,7920.00
2018-08-04T09:58:49.777Z,8000.00
2018-08-04T09:59:49.794Z,8172.00
2018-08-04T10:00:49.795Z,8444.00
2018-08-04T10:01:49.805Z,8636.00
2018-08-04T10:02:49.813Z,8508.00
2018-08-04T10:03:49.823Z,8092.00
2018-08-04T10:04:49.834Z,7396.00
2018-08-04T10:05:49.842Z,7444.00
2018-08-04T10:06:49.852Z,7528.00
2018-08-04T10:07:49.856Z,7492.00
2018-08-04T10:08:49.875Z,7276.00
2018-08-04T10:09:49.872Z,7380.00
2018-08-04T10:10:49.887Z,7440.00
2018-08-04T10:11:49.895Z,7700.00
2018-08-04T10:12:49.907Z,8256.00
2018-08-04T10:13:49.915Z,9044.00
2018-08-04T10:14:49.925Z,9884.00
2018-08-04T10:15:49.932Z,10100.00
2018-08-04T10:16:49.940Z,10672.00
2018-08-04T10:17:49.950Z,10632.00
2018-08-04T10:18:49.959Z,10008.00
2018-08-04T10:19:49.968Z,9160.00
2018-08-04T10:20:49.978Z,8920.00
2018-08-04T10:21:49.986Z,8840.00
2018-08-04T10:22:49.994Z,8916.00
2018-08-04T10:23:50.004Z,8648.00
2018-08-04T10:24:50.013Z,7904.00
2018-08-04T10:25:50.023Z,7208.00
2018-08-04T10:26:50.036Z,7056.00
2018-08-04T10:27:50.040Z,7664.00
2018-08-04T10:28:50.050Z,8008.00
2018-08-04T10:29:50.058Z,7772.00
2018-08-04T10:30:50.071Z,7668.00
2018-08-04T10:31:50.079Z,7728.00
2018-08-04T10:32:50.124Z,7556.00
2018-08-04T10:33:50.093Z,7528.00
2018-08-04T10:34:50.103Z,7920.00
2018-08-04T10:35:50.207Z,8620.00
2018-08-04T10:36:50.121Z,8972.00
2018-08-04T10:37:50.130Z,8940.00
2018-08-04T10:38:50.143Z,8888.00
2018-08-04T10:39:50.148Z,8228.00
2018-08-04T10:40:50.160Z,7484.00
2018-08-04T10:41:50.167Z,7172.00
2018-08-04T10:42:50.173Z,7580.00
2018-08-04T10:43:50.201Z,8144.00
2018-08-04T10:44:50.193Z,8504.00
2018-08-04T10:45:50.203Z,8596.00
2018-08-04T10:46:50.210Z,8584.00
2018-08-04T10:47:50.221Z,8452.00
2018-08-04T10:48:50.231Z,8264.00
2018-08-04T10:49:50.235Z,8000.00
2018-08-04T10:50:50.246Z,7964.00
2018-08-04T10:51:50.252Z,7988.00
2018-08-04T10:52:50.263Z,7956.00
2018-08-04T10:53:50.276Z,7912.00
2018-08-04T10:54:50.282Z,8120.00
2018-08-04T10:55:50.289Z,8492.00
2018-08-04T10:56:50.302Z,8736.00
2018-08-04T10:57:50.309Z,8820.00
2018-08-04T10:58:50.320Z,8748.00
2018-08-04T10:59:50.327Z,8320.00
2018-08-04T11:00:50.522Z,8204.00
2018-08-04T11:01:50.344Z,8388.00
2018-08-04T11:02:50.351Z,8628.00
2018-08-04T11:03:50.371Z,8716.00
2018-08-04T11:04:50.382Z,8544.00
2018-08-04T11:05:50.381Z,8664.00
2018-08-04T11:06:50.397Z,9212.00
2018-08-04T11:07:50.401Z,9712.00
2018-08-04T11:08:50.408Z,10164.00
2018-08-04T11:09:50.420Z,10316.00
2018-08-04T11:10:50.426Z,10396.00
2018-08-04T11:11:50.439Z,10500.00
2018-08-04T11:12:50.449Z,10292.00
2018-08-04T11:13:50.454Z,10232.00
2018-08-04T11:14:50.465Z,10080.00
2018-08-04T11:15:50.471Z,9976.00
2018-08-04T11:16:50.483Z,9848.00
2018-08-04T11:17:50.489Z,9660.00
2018-08-04T11:18:50.497Z,9476.00
2018-08-04T11:19:50.526Z,9384.00
2018-08-04T11:20:50.513Z,9308.00
2018-08-04T11:21:50.526Z,9176.00
2018-08-04T11:22:50.536Z,9028.00
2018-08-04T11:23:50.545Z,8820.00
2018-08-04T11:24:50.556Z,8772.00
2018-08-04T11:25:50.567Z,8800.00
2018-08-04T11:26:50.571Z,8652.00
2018-08-04T11:27:50.579Z,8448.00
2018-08-04T11:28:50.590Z,8168.00
2018-08-04T11:29:50.601Z,7848.00
2018-08-04T11:30:50.641Z,7744.00
2018-08-04T11:31:50.614Z,7764.00
2018-08-04T11:32:50.629Z,7804.00
2018-08-04T11:33:50.639Z,7856.00
2018-08-04T11:34:50.645Z,7912.00
2018-08-04T11:35:50.653Z,8016.00
2018-08-04T11:36:50.661Z,8188.00
2018-08-04T11:37:50.698Z,8464.00
2018-08-04T11:38:50.685Z,8764.00
2018-08-04T11:39:50.690Z,9028.00
2018-08-04T11:40:50.700Z,9304.00
2018-08-04T11:41:50.709Z,9392.00
2018-08-04T11:42:50.720Z,9480.00
2018-08-04T11:43:50.726Z,9492.00
2018-08-04T11:44:50.738Z,9380.00
2018-08-04T11:45:50.746Z,9020.00
2018-08-04T11:46:50.755Z,8516.00
2018-08-04T11:47:50.765Z,8052.00
2018-08-04T11:48:50.774Z,7680.00
2018-08-04T11:49:50.781Z,7744.00
2018-08-04T11:50:50.792Z,8220.00
2018-08-04T11:51:50.798Z,8860.00
2018-08-04T11:52:50.809Z,9452.00
2018-08-04T11:53:50.815Z,9800.00
2018-08-04T11:54:50.826Z,10124.00
2018-08-04T11:55:50.834Z,10492.00
2018-08-04T11:56:50.847Z,10804.00
2018-08-04T11:57:50.861Z,10836.00
2018-08-04T11:58:50.864Z,10716.00
2018-08-04T11:59:50.877Z,10424.00
2018-08-04T12:00:50.881Z,10012.00
2018-08-04T12:01:50.905Z,9456.00
2018-08-04T12:02:50.900Z,8816.00
2018-08-04T12:03:50.912Z,8468.00
2018-08-04T12:04:50.918Z,8436.00
2018-08-04T12:05:50.929Z,8628.00
2018-08-04T12:06:50.939Z,8964.00
2018-08-04T12:07:50.946Z,9300.00
2018-08-04T12:08:50.954Z,9392.00
2018-08-04T12:09:50.966Z,9448.00
2018-08-04T12:10:50.977Z,9820.00
2018-08-04T12:11:50.985Z,10124.00
2018-08-04T12:12:50.993Z,10232.00
2018-08-04T12:13:51.003Z,10068.00
2018-08-04T12:14:51.013Z,9808.00
2018-08-04T12:15:51.026Z,9484.00
2018-08-04T12:16:51.031Z,9028.00
2018-08-04T12:17:51.041Z,8596.00
2018-08-04T12:18:51.051Z,8500.00